sensor_id;sensor_type;location;lat;lon;timestamp;pressure;altitude;pressure_sealevel;temperature
65600;BMP280;52272;-29.642;-50.764;2022-11-11T00:02:11;100850.44;;;19.73
65600;BMP280;52272;-29.642;-50.764;2022-11-11T00:05:00;100849.69;;;19.73
65600;BMP280;52272;-29.642;-50.764;2022-11-11T00:07:48;100841.81;;;19.64
65600;BMP280;52272;-29.642;-50.764;2022-11-11T00:10:39;100847.94;;;19.59
65600;BMP280;52272;-29.642;-50.764;2022-11-11T00:13:29;100841.31;;;19.60
65600;BMP280;52272;-29.642;-50.764;2022-11-11T00:16:19;100844.75;;;19.66
65600;BMP280;52272;-29.642;-50.764;2022-11-11T00:19:09;100821.13;;;19.39
65600;BMP280;52272;-29.642;-50.764;2022-11-11T00:22:21;100830.72;;;19.51
65600;BMP280;52272;-29.642;-50.764;2022-11-11T00:25:30;100838.59;;;19.43
65600;BMP280;52272;-29.642;-50.764;2022-11-11T00:28:19;100839.31;;;19.44
65600;BMP280;52272;-29.642;-50.764;2022-11-11T00:31:12;100839.56;;;19.40
65600;BMP280;52272;-29.642;-50.764;2022-11-11T00:34:02;100848.16;;;19.39
65600;BMP280;52272;-29.642;-50.764;2022-11-11T00:36:51;100842.97;;;19.24
65600;BMP280;52272;-29.642;-50.764;2022-11-11T00:39:39;100853.53;;;19.28
65600;BMP280;52272;-29.642;-50.764;2022-11-11T00:42:29;100853.53;;;19.28
65600;BMP280;52272;-29.642;-50.764;2022-11-11T00:45:17;100852.25;;;19.18
65600;BMP280;52272;-29.642;-50.764;2022-11-11T00:48:08;100854.44;;;19.08
65600;BMP280;52272;-29.642;-50.764;2022-11-11T00:51:14;100865.72;;;19.07
65600;BMP280;52272;-29.642;-50.764;2022-11-11T00:54:03;100872.16;;;19.15
65600;BMP280;52272;-29.642;-50.764;2022-11-11T00:56:52;100872.88;;;19.10
65600;BMP280;52272;-29.642;-50.764;2022-11-11T00:59:40;100894.75;;;19.17
65600;BMP280;52272;-29.642;-50.764;2022-11-11T01:02:29;100889.81;;;19.10
65600;BMP280;52272;-29.642;-50.764;2022-11-11T01:05:18;100880.97;;;19.10
65600;BMP280;52272;-29.642;-50.764;2022-11-11T01:08:06;100877.97;;;18.97
65600;BMP280;52272;-29.642;-50.764;2022-11-11T01:10:55;100874.56;;;19.02
65600;BMP280;52272;-29.642;-50.764;2022-11-11T01:13:44;100881.72;;;19.10
65600;BMP280;52272;-29.642;-50.764;2022-11-11T01:16:33;100869.66;;;19.06
65600;BMP280;52272;-29.642;-50.764;2022-11-11T01:19:21;100868.13;;;18.94
65600;BMP280;52272;-29.642;-50.764;2022-11-11T01:22:10;100877.88;;;18.75
65600;BMP280;52272;-29.642;-50.764;2022-11-11T01:24:58;100870.75;;;18.77
65600;BMP280;52272;-29.642;-50.764;2022-11-11T01:27:47;100869.78;;;18.80
65600;BMP280;52272;-29.642;-50.764;2022-11-11T01:30:36;100871.19;;;18.70
65600;BMP280;52272;-29.642;-50.764;2022-11-11T01:33:24;100866.75;;;18.67
65600;BMP280;52272;-29.642;-50.764;2022-11-11T01:36:16;100866.72;;;18.62
65600;BMP280;52272;-29.642;-50.764;2022-11-11T01:39:05;100860.78;;;18.52
65600;BMP280;52272;-29.642;-50.764;2022-11-11T01:41:53;100869.84;;;18.55
65600;BMP280;52272;-29.642;-50.764;2022-11-11T01:44:48;100872.38;;;18.64
65600;BMP280;52272;-29.642;-50.764;2022-11-11T01:47:36;100856.31;;;18.49
65600;BMP280;52272;-29.642;-50.764;2022-11-11T01:51:05;100839.63;;;18.46
65600;BMP280;52272;-29.642;-50.764;2022-11-11T01:53:57;100853.53;;;18.33
65600;BMP280;52272;-29.642;-50.764;2022-11-11T01:56:51;100836.75;;;18.18
65600;BMP280;52272;-29.642;-50.764;2022-11-11T01:59:43;100837.38;;;18.02
65600;BMP280;52272;-29.642;-50.764;2022-11-11T02:02:38;100830.31;;;18.10
65600;BMP280;52272;-29.642;-50.764;2022-11-11T02:05:27;100824.75;;;17.88
65600;BMP280;52272;-29.642;-50.764;2022-11-11T02:08:36;100808.47;;;17.77
65600;BMP280;52272;-29.642;-50.764;2022-11-11T02:11:27;100813.88;;;17.77
65600;BMP280;52272;-29.642;-50.764;2022-11-11T02:14:40;100811.13;;;17.97
65600;BMP280;52272;-29.642;-50.764;2022-11-11T02:17:31;100818.13;;;17.89
65600;BMP280;52272;-29.642;-50.764;2022-11-11T02:20:24;100819.34;;;17.88
65600;BMP280;52272;-29.642;-50.764;2022-11-11T02:26:06;100805.72;;;17.97
65600;BMP280;52272;-29.642;-50.764;2022-11-11T02:28:56;100812.72;;;17.84
65600;BMP280;52272;-29.642;-50.764;2022-11-11T02:31:46;100805.00;;;17.71
65600;BMP280;52272;-29.642;-50.764;2022-11-11T02:34:34;100806.28;;;17.81
65600;BMP280;52272;-29.642;-50.764;2022-11-11T02:37:25;100808.66;;;17.68
65600;BMP280;52272;-29.642;-50.764;2022-11-11T02:40:20;100804.59;;;17.78
65600;BMP280;52272;-29.642;-50.764;2022-11-11T02:43:11;100803.84;;;17.78
65600;BMP280;52272;-29.642;-50.764;2022-11-11T02:46:00;100800.13;;;17.75
65600;BMP280;52272;-29.642;-50.764;2022-11-11T02:48:50;100797.78;;;17.88
65600;BMP280;52272;-29.642;-50.764;2022-11-11T02:51:39;100792.81;;;17.81
65600;BMP280;52272;-29.642;-50.764;2022-11-11T02:54:28;100784.16;;;17.72
65600;BMP280;52272;-29.642;-50.764;2022-11-11T02:57:16;100778.50;;;17.64
65600;BMP280;52272;-29.642;-50.764;2022-11-11T03:00:06;100762.41;;;17.75
65600;BMP280;52272;-29.642;-50.764;2022-11-11T03:02:55;100758.56;;;17.56
65600;BMP280;52272;-29.642;-50.764;2022-11-11T03:05:44;100758.84;;;17.33
65600;BMP280;52272;-29.642;-50.764;2022-11-11T03:08:32;100756.44;;;17.60
65600;BMP280;52272;-29.642;-50.764;2022-11-11T03:11:21;100759.13;;;17.60
65600;BMP280;52272;-29.642;-50.764;2022-11-11T03:14:15;100748.75;;;17.84
65600;BMP280;52272;-29.642;-50.764;2022-11-11T03:17:04;100744.56;;;18.14
65600;BMP280;52272;-29.642;-50.764;2022-11-11T03:20:13;100731.22;;;17.38
65600;BMP280;52272;-29.642;-50.764;2022-11-11T03:23:23;100734.06;;;17.54
65600;BMP280;52272;-29.642;-50.764;2022-11-11T03:26:11;100734.13;;;17.34
65600;BMP280;52272;-29.642;-50.764;2022-11-11T03:29:00;100728.25;;;17.10
65600;BMP280;52272;-29.642;-50.764;2022-11-11T03:31:48;100726.75;;;16.84
65600;BMP280;52272;-29.642;-50.764;2022-11-11T03:34:37;100725.66;;;16.96
65600;BMP280;52272;-29.642;-50.764;2022-11-11T03:37:29;100720.47;;;16.92
65600;BMP280;52272;-29.642;-50.764;2022-11-11T03:40:36;100725.25;;;17.28
65600;BMP280;52272;-29.642;-50.764;2022-11-11T03:43:29;100722.56;;;17.54
65600;BMP280;52272;-29.642;-50.764;2022-11-11T03:46:17;100715.22;;;17.54
65600;BMP280;52272;-29.642;-50.764;2022-11-11T03:49:06;100720.34;;;17.52
65600;BMP280;52272;-29.642;-50.764;2022-11-11T03:51:55;100713.03;;;17.58
65600;BMP280;52272;-29.642;-50.764;2022-11-11T03:54:43;100709.97;;;17.40
65600;BMP280;52272;-29.642;-50.764;2022-11-11T03:57:37;100713.22;;;17.49
65600;BMP280;52272;-29.642;-50.764;2022-11-11T04:00:28;100711.63;;;17.12
65600;BMP280;52272;-29.642;-50.764;2022-11-11T04:03:18;100706.19;;;17.06
65600;BMP280;52272;-29.642;-50.764;2022-11-11T04:06:25;100698.38;;;17.34
65600;BMP280;52272;-29.642;-50.764;2022-11-11T04:09:32;100697.28;;;16.95
65600;BMP280;52272;-29.642;-50.764;2022-11-11T04:12:40;100706.56;;;16.74
65600;BMP280;52272;-29.642;-50.764;2022-11-11T04:15:47;100693.25;;;16.65
65600;BMP280;52272;-29.642;-50.764;2022-11-11T04:18:54;100695.00;;;16.88
65600;BMP280;52272;-29.642;-50.764;2022-11-11T04:22:01;100701.63;;;16.92
65600;BMP280;52272;-29.642;-50.764;2022-11-11T04:24:49;100701.25;;;16.79
65600;BMP280;52272;-29.642;-50.764;2022-11-11T04:27:57;100694.81;;;16.72
65600;BMP280;52272;-29.642;-50.764;2022-11-11T04:31:15;100688.69;;;16.71
65600;BMP280;52272;-29.642;-50.764;2022-11-11T04:34:03;100695.38;;;17.01
65600;BMP280;52272;-29.642;-50.764;2022-11-11T04:36:52;100692.84;;;16.92
65600;BMP280;52272;-29.642;-50.764;2022-11-11T04:39:40;100681.94;;;16.81
65600;BMP280;52272;-29.642;-50.764;2022-11-11T04:42:47;100683.28;;;16.71
65600;BMP280;52272;-29.642;-50.764;2022-11-11T04:45:35;100683.09;;;16.74
65600;BMP280;52272;-29.642;-50.764;2022-11-11T04:48:26;100669.59;;;16.69
65600;BMP280;52272;-29.642;-50.764;2022-11-11T04:51:14;100676.31;;;16.59
65600;BMP280;52272;-29.642;-50.764;2022-11-11T04:54:03;100685.75;;;16.94
65600;BMP280;52272;-29.642;-50.764;2022-11-11T04:56:52;100664.47;;;17.16
65600;BMP280;52272;-29.642;-50.764;2022-11-11T04:59:41;100666.34;;;17.10
65600;BMP280;52272;-29.642;-50.764;2022-11-11T05:02:30;100665.91;;;17.17
65600;BMP280;52272;-29.642;-50.764;2022-11-11T05:05:37;100656.97;;;17.00
65600;BMP280;52272;-29.642;-50.764;2022-11-11T05:09:00;100648.03;;;17.14
65600;BMP280;52272;-29.642;-50.764;2022-11-11T05:11:51;100640.94;;;17.11
65600;BMP280;52272;-29.642;-50.764;2022-11-11T05:14:39;100629.59;;;17.02
65600;BMP280;52272;-29.642;-50.764;2022-11-11T05:17:46;100616.22;;;16.87
65600;BMP280;52272;-29.642;-50.764;2022-11-11T05:21:11;100625.00;;;16.82
65600;BMP280;52272;-29.642;-50.764;2022-11-11T05:24:08;100620.22;;;16.72
65600;BMP280;52272;-29.642;-50.764;2022-11-11T05:27:14;100615.59;;;16.73
65600;BMP280;52272;-29.642;-50.764;2022-11-11T05:30:05;100618.06;;;17.01
65600;BMP280;52272;-29.642;-50.764;2022-11-11T05:32:54;100620.34;;;17.08
65600;BMP280;52272;-29.642;-50.764;2022-11-11T05:35:43;100619.91;;;17.15
65600;BMP280;52272;-29.642;-50.764;2022-11-11T05:38:31;100617.66;;;17.39
65600;BMP280;52272;-29.642;-50.764;2022-11-11T05:41:20;100613.75;;;17.77
65600;BMP280;52272;-29.642;-50.764;2022-11-11T05:44:11;100608.44;;;17.88
65600;BMP280;52272;-29.642;-50.764;2022-11-11T05:47:00;100610.91;;;17.97
65600;BMP280;52272;-29.642;-50.764;2022-11-11T05:49:48;100612.16;;;18.01
65600;BMP280;52272;-29.642;-50.764;2022-11-11T05:52:37;100617.13;;;18.14
65600;BMP280;52272;-29.642;-50.764;2022-11-11T05:55:25;100623.25;;;18.14
65600;BMP280;52272;-29.642;-50.764;2022-11-11T05:58:19;100616.38;;;18.13
65600;BMP280;52272;-29.642;-50.764;2022-11-11T06:01:07;100609.03;;;18.14
65600;BMP280;52272;-29.642;-50.764;2022-11-11T06:03:56;100608.78;;;18.17
65600;BMP280;52272;-29.642;-50.764;2022-11-11T06:06:44;100608.75;;;18.06
65600;BMP280;52272;-29.642;-50.764;2022-11-11T06:09:33;100602.66;;;18.11
65600;BMP280;52272;-29.642;-50.764;2022-11-11T06:12:21;100593.59;;;18.14
65600;BMP280;52272;-29.642;-50.764;2022-11-11T06:15:10;100601.13;;;18.05
65600;BMP280;52272;-29.642;-50.764;2022-11-11T06:17:59;100603.19;;;18.15
65600;BMP280;52272;-29.642;-50.764;2022-11-11T06:20:58;100599.44;;;18.13
65600;BMP280;52272;-29.642;-50.764;2022-11-11T06:23:49;100605.56;;;18.02
65600;BMP280;52272;-29.642;-50.764;2022-11-11T06:26:38;100610.69;;;18.00
65600;BMP280;52272;-29.642;-50.764;2022-11-11T06:29:26;100610.94;;;18.08
65600;BMP280;52272;-29.642;-50.764;2022-11-11T06:32:14;100609.97;;;18.05
65600;BMP280;52272;-29.642;-50.764;2022-11-11T06:35:03;100608.25;;;18.02
65600;BMP280;52272;-29.642;-50.764;2022-11-11T06:37:52;100616.34;;;18.08
65600;BMP280;52272;-29.642;-50.764;2022-11-11T06:40:42;100616.00;;;17.84
65600;BMP280;52272;-29.642;-50.764;2022-11-11T06:43:31;100610.78;;;17.38
65600;BMP280;52272;-29.642;-50.764;2022-11-11T06:46:24;100609.88;;;17.16
65600;BMP280;52272;-29.642;-50.764;2022-11-11T06:49:12;100610.22;;;16.98
65600;BMP280;52272;-29.642;-50.764;2022-11-11T06:52:00;100607.03;;;16.99
65600;BMP280;52272;-29.642;-50.764;2022-11-11T06:54:49;100608.56;;;16.80
65600;BMP280;52272;-29.642;-50.764;2022-11-11T06:57:37;100620.91;;;17.18
65600;BMP280;52272;-29.642;-50.764;2022-11-11T07:00:26;100627.56;;;17.53
65600;BMP280;52272;-29.642;-50.764;2022-11-11T07:03:19;100622.75;;;17.68
65600;BMP280;52272;-29.642;-50.764;2022-11-11T07:06:11;100634.31;;;17.74
65600;BMP280;52272;-29.642;-50.764;2022-11-11T07:08:59;100643.66;;;17.79
65600;BMP280;52272;-29.642;-50.764;2022-11-11T07:11:48;100638.03;;;17.82
65600;BMP280;52272;-29.642;-50.764;2022-11-11T07:14:36;100649.41;;;17.97
65600;BMP280;52272;-29.642;-50.764;2022-11-11T07:17:24;100637.63;;;17.95
65600;BMP280;52272;-29.642;-50.764;2022-11-11T07:20:13;100626.38;;;18.02
65600;BMP280;52272;-29.642;-50.764;2022-11-11T07:23:02;100629.63;;;18.11
65600;BMP280;52272;-29.642;-50.764;2022-11-11T07:25:50;100623.84;;;17.87
65600;BMP280;52272;-29.642;-50.764;2022-11-11T07:28:39;100623.56;;;17.74
65600;BMP280;52272;-29.642;-50.764;2022-11-11T07:31:27;100629.81;;;18.02
65600;BMP280;52272;-29.642;-50.764;2022-11-11T07:34:17;100626.84;;;17.58
65600;BMP280;52272;-29.642;-50.764;2022-11-11T07:37:05;100624.78;;;17.42
65600;BMP280;52272;-29.642;-50.764;2022-11-11T07:39:54;100623.34;;;17.83
65600;BMP280;52272;-29.642;-50.764;2022-11-11T07:42:43;100621.69;;;17.97
65600;BMP280;52272;-29.642;-50.764;2022-11-11T07:45:31;100623.59;;;17.85
65600;BMP280;52272;-29.642;-50.764;2022-11-11T07:48:19;100623.91;;;17.98
65600;BMP280;52272;-29.642;-50.764;2022-11-11T07:51:09;100594.47;;;17.53
65600;BMP280;52272;-29.642;-50.764;2022-11-11T07:53:59;100623.94;;;17.31
65600;BMP280;52272;-29.642;-50.764;2022-11-11T07:56:49;100624.88;;;17.22
65600;BMP280;52272;-29.642;-50.764;2022-11-11T07:59:38;100626.94;;;17.13
65600;BMP280;52272;-29.642;-50.764;2022-11-11T08:02:27;100631.72;;;17.23
65600;BMP280;52272;-29.642;-50.764;2022-11-11T08:05:15;100629.06;;;17.03
65600;BMP280;52272;-29.642;-50.764;2022-11-11T08:08:06;100626.84;;;16.96
65600;BMP280;52272;-29.642;-50.764;2022-11-11T08:10:55;100610.84;;;16.87
65600;BMP280;52272;-29.642;-50.764;2022-11-11T08:13:43;100631.06;;;17.34
65600;BMP280;52272;-29.642;-50.764;2022-11-11T08:16:32;100627.47;;;17.42
65600;BMP280;52272;-29.642;-50.764;2022-11-11T08:19:21;100637.41;;;17.31
65600;BMP280;52272;-29.642;-50.764;2022-11-11T08:22:09;100633.91;;;17.19
65600;BMP280;52272;-29.642;-50.764;2022-11-11T08:24:58;100627.66;;;17.08
65600;BMP280;52272;-29.642;-50.764;2022-11-11T08:27:58;100631.00;;;16.97
65600;BMP280;52272;-29.642;-50.764;2022-11-11T08:30:47;100635.09;;;16.93
65600;BMP280;52272;-29.642;-50.764;2022-11-11T08:33:35;100628.44;;;16.88
65600;BMP280;52272;-29.642;-50.764;2022-11-11T08:36:24;100633.94;;;16.99
65600;BMP280;52272;-29.642;-50.764;2022-11-11T08:39:13;100642.53;;;17.03
65600;BMP280;52272;-29.642;-50.764;2022-11-11T08:42:01;100640.94;;;17.11
65600;BMP280;52272;-29.642;-50.764;2022-11-11T08:44:50;100633.59;;;17.17
65600;BMP280;52272;-29.642;-50.764;2022-11-11T08:47:39;100637.94;;;17.35
65600;BMP280;52272;-29.642;-50.764;2022-11-11T08:50:30;100642.69;;;17.82
65600;BMP280;52272;-29.642;-50.764;2022-11-11T08:53:19;100644.88;;;17.78
65600;BMP280;52272;-29.642;-50.764;2022-11-11T08:56:08;100645.34;;;17.40
65600;BMP280;52272;-29.642;-50.764;2022-11-11T08:58:59;100656.31;;;17.36
65600;BMP280;52272;-29.642;-50.764;2022-11-11T09:01:47;100651.28;;;17.24
65600;BMP280;52272;-29.642;-50.764;2022-11-11T09:04:36;100649.44;;;17.35
65600;BMP280;52272;-29.642;-50.764;2022-11-11T09:07:32;100657.53;;;17.35
65600;BMP280;52272;-29.642;-50.764;2022-11-11T09:10:21;100655.09;;;17.37
65600;BMP280;52272;-29.642;-50.764;2022-11-11T09:13:09;100654.34;;;17.68
65600;BMP280;52272;-29.642;-50.764;2022-11-11T09:15:58;100663.69;;;17.72
65600;BMP280;52272;-29.642;-50.764;2022-11-11T09:18:46;100684.91;;;17.59
65600;BMP280;52272;-29.642;-50.764;2022-11-11T09:21:37;100686.38;;;17.60
65600;BMP280;52272;-29.642;-50.764;2022-11-11T09:24:27;100677.50;;;17.54
65600;BMP280;52272;-29.642;-50.764;2022-11-11T09:27:15;100678.31;;;17.66
65600;BMP280;52272;-29.642;-50.764;2022-11-11T09:30:05;100692.19;;;17.53
65600;BMP280;52272;-29.642;-50.764;2022-11-11T09:32:59;100690.50;;;17.56
65600;BMP280;52272;-29.642;-50.764;2022-11-11T09:35:47;100687.13;;;17.61
65600;BMP280;52272;-29.642;-50.764;2022-11-11T09:38:37;100674.78;;;17.85
65600;BMP280;52272;-29.642;-50.764;2022-11-11T09:51:17;100698.56;;;18.92
65600;BMP280;52272;-29.642;-50.764;2022-11-11T09:54:13;100709.13;;;19.18
65600;BMP280;52272;-29.642;-50.764;2022-11-11T09:57:18;100725.63;;;19.36
65600;BMP280;52272;-29.642;-50.764;2022-11-11T10:00:21;100732.00;;;19.39
65600;BMP280;52272;-29.642;-50.764;2022-11-11T10:03:22;100744.03;;;19.38
65600;BMP280;52272;-29.642;-50.764;2022-11-11T10:06:20;100743.28;;;19.37
65600;BMP280;52272;-29.642;-50.764;2022-11-11T10:12:13;100731.97;;;19.72
65600;BMP280;52272;-29.642;-50.764;2022-11-11T10:15:11;100732.22;;;19.74
65600;BMP280;52272;-29.642;-50.764;2022-11-11T10:18:09;100735.44;;;19.45
65600;BMP280;52272;-29.642;-50.764;2022-11-11T10:21:12;100730.53;;;19.27
65600;BMP280;52272;-29.642;-50.764;2022-11-11T10:24:04;100747.94;;;19.37
65600;BMP280;52272;-29.642;-50.764;2022-11-11T10:27:11;100755.81;;;19.35
65600;BMP280;52272;-29.642;-50.764;2022-11-11T10:30:21;100760.75;;;19.64
65600;BMP280;52272;-29.642;-50.764;2022-11-11T10:36:29;100764.16;;;19.59
65600;BMP280;52272;-29.642;-50.764;2022-11-11T10:42:34;100790.84;;;20.50
65600;BMP280;52272;-29.642;-50.764;2022-11-11T10:45:52;100787.06;;;20.69
65600;BMP280;52272;-29.642;-50.764;2022-11-11T10:49:18;100800.06;;;20.71
65600;BMP280;52272;-29.642;-50.764;2022-11-11T10:52:49;100802.34;;;20.56
65600;BMP280;52272;-29.642;-50.764;2022-11-11T10:55:43;100816.13;;;20.63
65600;BMP280;52272;-29.642;-50.764;2022-11-11T10:58:42;100821.72;;;20.76
65600;BMP280;52272;-29.642;-50.764;2022-11-11T11:01:39;100830.69;;;21.06
65600;BMP280;52272;-29.642;-50.764;2022-11-11T11:04:35;100821.53;;;21.15
65600;BMP280;52272;-29.642;-50.764;2022-11-11T11:07:28;100832.44;;;21.44
65600;BMP280;52272;-29.642;-50.764;2022-11-11T11:10:46;100846.53;;;21.66
65600;BMP280;52272;-29.642;-50.764;2022-11-11T11:16:38;100832.75;;;22.18
65600;BMP280;52272;-29.642;-50.764;2022-11-11T11:19:33;100838.00;;;22.77
65600;BMP280;52272;-29.642;-50.764;2022-11-11T11:22:52;100845.91;;;23.11
65600;BMP280;52272;-29.642;-50.764;2022-11-11T11:25:51;100842.78;;;23.83
65600;BMP280;52272;-29.642;-50.764;2022-11-11T11:28:57;100845.72;;;24.50
65600;BMP280;52272;-29.642;-50.764;2022-11-11T11:31:46;100832.84;;;24.84
65600;BMP280;52272;-29.642;-50.764;2022-11-11T11:34:45;100849.25;;;25.24
65600;BMP280;52272;-29.642;-50.764;2022-11-11T11:37:48;100845.78;;;25.44
65600;BMP280;52272;-29.642;-50.764;2022-11-11T11:43:35;100862.53;;;25.48
65600;BMP280;52272;-29.642;-50.764;2022-11-11T11:46:37;100858.13;;;25.66
65600;BMP280;52272;-29.642;-50.764;2022-11-11T11:52:45;100852.47;;;25.92
65600;BMP280;52272;-29.642;-50.764;2022-11-11T11:56:01;100843.16;;;26.15
65600;BMP280;52272;-29.642;-50.764;2022-11-11T12:06:12;100840.59;;;27.79
65600;BMP280;52272;-29.642;-50.764;2022-11-11T12:21:54;100816.59;;;26.81
65600;BMP280;52272;-29.642;-50.764;2022-11-11T12:24:48;100824.97;;;26.98
65600;BMP280;52272;-29.642;-50.764;2022-11-11T12:34:25;100830.63;;;27.67
65600;BMP280;52272;-29.642;-50.764;2022-11-11T12:40:40;100819.50;;;27.13
65600;BMP280;52272;-29.642;-50.764;2022-11-11T12:52:57;100829.53;;;26.23
65600;BMP280;52272;-29.642;-50.764;2022-11-11T13:02:37;100823.34;;;26.29
65600;BMP280;52272;-29.642;-50.764;2022-11-11T13:05:37;100822.75;;;26.74
65600;BMP280;52272;-29.642;-50.764;2022-11-11T13:08:35;100820.25;;;27.35
65600;BMP280;52272;-29.642;-50.764;2022-11-11T13:14:52;100821.31;;;26.73
65600;BMP280;52272;-29.642;-50.764;2022-11-11T13:17:43;100810.72;;;26.62
65600;BMP280;52272;-29.642;-50.764;2022-11-11T13:21:15;100817.38;;;26.38
65600;BMP280;52272;-29.642;-50.764;2022-11-11T13:23:43;100811.25;;;26.68
65600;BMP280;52272;-29.642;-50.764;2022-11-11T13:26:39;100806.03;;;27.29
65600;BMP280;52272;-29.642;-50.764;2022-11-11T13:36:05;100807.31;;;27.98
65600;BMP280;52272;-29.642;-50.764;2022-11-11T13:38:59;100813.97;;;28.51
65600;BMP280;52272;-29.642;-50.764;2022-11-11T13:41:50;100813.53;;;28.62
65600;BMP280;52272;-29.642;-50.764;2022-11-11T13:44:52;100808.00;;;28.13
65600;BMP280;52272;-29.642;-50.764;2022-11-11T13:47:44;100808.63;;;28.28
65600;BMP280;52272;-29.642;-50.764;2022-11-11T13:50:36;100812.50;;;29.23
65600;BMP280;52272;-29.642;-50.764;2022-11-11T13:53:27;100809.44;;;29.19
65600;BMP280;52272;-29.642;-50.764;2022-11-11T13:56:27;100808.63;;;29.26
65600;BMP280;52272;-29.642;-50.764;2022-11-11T13:59:28;100813.56;;;29.44
65600;BMP280;52272;-29.642;-50.764;2022-11-11T14:07:56;100818.06;;;31.36
65600;BMP280;52272;-29.642;-50.764;2022-11-11T14:10:51;100818.75;;;31.74
65600;BMP280;52272;-29.642;-50.764;2022-11-11T14:13:41;100815.22;;;32.02
65600;BMP280;52272;-29.642;-50.764;2022-11-11T14:22:32;100806.16;;;32.71
65600;BMP280;52272;-29.642;-50.764;2022-11-11T14:25:25;100806.06;;;32.90
65600;BMP280;52272;-29.642;-50.764;2022-11-11T14:40:10;100798.41;;;32.58
65600;BMP280;52272;-29.642;-50.764;2022-11-11T14:43:33;100784.72;;;33.23
65600;BMP280;52272;-29.642;-50.764;2022-11-11T14:46:21;100774.38;;;33.67
65600;BMP280;52272;-29.642;-50.764;2022-11-11T14:49:10;100782.00;;;34.01
65600;BMP280;52272;-29.642;-50.764;2022-11-11T14:52:40;100769.00;;;34.26
65600;BMP280;52272;-29.642;-50.764;2022-11-11T14:55:36;100775.41;;;34.65
65600;BMP280;52272;-29.642;-50.764;2022-11-11T14:58:32;100776.69;;;34.16
65600;BMP280;52272;-29.642;-50.764;2022-11-11T15:01:21;100765.09;;;34.90
65600;BMP280;52272;-29.642;-50.764;2022-11-11T15:04:12;100762.78;;;34.62
65600;BMP280;52272;-29.642;-50.764;2022-11-11T15:07:01;100765.03;;;34.29
65600;BMP280;52272;-29.642;-50.764;2022-11-11T15:10:11;100762.78;;;33.37
65600;BMP280;52272;-29.642;-50.764;2022-11-11T15:22:52;100744.50;;;34.57
65600;BMP280;52272;-29.642;-50.764;2022-11-11T15:29:36;100726.41;;;35.17
65600;BMP280;52272;-29.642;-50.764;2022-11-11T15:32:44;100724.56;;;35.08
65600;BMP280;52272;-29.642;-50.764;2022-11-11T15:38:43;100728.63;;;35.46
65600;BMP280;52272;-29.642;-50.764;2022-11-11T15:41:38;100725.56;;;35.01
65600;BMP280;52272;-29.642;-50.764;2022-11-11T15:44:31;100720.78;;;34.29
65600;BMP280;52272;-29.642;-50.764;2022-11-11T15:47:22;100713.41;;;34.70
65600;BMP280;52272;-29.642;-50.764;2022-11-11T15:50:37;100713.56;;;34.02
65600;BMP280;52272;-29.642;-50.764;2022-11-11T15:53:26;100703.66;;;34.44
65600;BMP280;52272;-29.642;-50.764;2022-11-11T15:56:31;100706.38;;;34.08
65600;BMP280;52272;-29.642;-50.764;2022-11-11T15:59:28;100693.56;;;34.26
65600;BMP280;52272;-29.642;-50.764;2022-11-11T16:02:33;100695.41;;;35.07
65600;BMP280;52272;-29.642;-50.764;2022-11-11T16:05:26;100690.88;;;35.92
65600;BMP280;52272;-29.642;-50.764;2022-11-11T16:08:19;100687.72;;;36.99
65600;BMP280;52272;-29.642;-50.764;2022-11-11T16:11:11;100680.78;;;37.00
65600;BMP280;52272;-29.642;-50.764;2022-11-11T16:14:03;100676.50;;;35.82
65600;BMP280;52272;-29.642;-50.764;2022-11-11T16:16:56;100669.31;;;35.77
65600;BMP280;52272;-29.642;-50.764;2022-11-11T16:19:46;100661.72;;;36.49
65600;BMP280;52272;-29.642;-50.764;2022-11-11T16:22:37;100666.31;;;37.17
65600;BMP280;52272;-29.642;-50.764;2022-11-11T16:25:28;100635.47;;;36.81
65600;BMP280;52272;-29.642;-50.764;2022-11-11T16:28:17;100655.44;;;35.77
65600;BMP280;52272;-29.642;-50.764;2022-11-11T16:37:18;100641.47;;;34.95
65600;BMP280;52272;-29.642;-50.764;2022-11-11T16:40:48;100648.00;;;34.63
65600;BMP280;52272;-29.642;-50.764;2022-11-11T16:43:45;100637.72;;;34.90
65600;BMP280;52272;-29.642;-50.764;2022-11-11T16:49:37;100633.44;;;35.14
65600;BMP280;52272;-29.642;-50.764;2022-11-11T16:52:43;100623.59;;;34.35
65600;BMP280;52272;-29.642;-50.764;2022-11-11T16:55:45;100610.94;;;33.84
65600;BMP280;52272;-29.642;-50.764;2022-11-11T16:58:34;100601.81;;;33.93
65600;BMP280;52272;-29.642;-50.764;2022-11-11T17:01:42;100616.38;;;34.30
65600;BMP280;52272;-29.642;-50.764;2022-11-11T17:05:00;100622.03;;;33.96
65600;BMP280;52272;-29.642;-50.764;2022-11-11T17:07:48;100617.69;;;34.29
65600;BMP280;52272;-29.642;-50.764;2022-11-11T17:10:40;100614.34;;;34.80
65600;BMP280;52272;-29.642;-50.764;2022-11-11T17:13:29;100616.06;;;34.49
65600;BMP280;52272;-29.642;-50.764;2022-11-11T17:16:17;100608.34;;;34.47
65600;BMP280;52272;-29.642;-50.764;2022-11-11T17:19:06;100602.16;;;34.60
65600;BMP280;52272;-29.642;-50.764;2022-11-11T17:21:54;100603.66;;;34.13
65600;BMP280;52272;-29.642;-50.764;2022-11-11T17:24:51;100603.41;;;34.21
65600;BMP280;52272;-29.642;-50.764;2022-11-11T17:27:39;100606.50;;;33.91
65600;BMP280;52272;-29.642;-50.764;2022-11-11T17:30:29;100597.28;;;34.22
65600;BMP280;52272;-29.642;-50.764;2022-11-11T17:33:17;100597.13;;;33.96
65600;BMP280;52272;-29.642;-50.764;2022-11-11T17:36:06;100580.66;;;33.98
65600;BMP280;52272;-29.642;-50.764;2022-11-11T17:38:56;100587.47;;;33.26
65600;BMP280;52272;-29.642;-50.764;2022-11-11T17:41:45;100579.75;;;33.36
65600;BMP280;52272;-29.642;-50.764;2022-11-11T17:44:34;100577.94;;;33.63
65600;BMP280;52272;-29.642;-50.764;2022-11-11T17:47:22;100572.31;;;33.61
65600;BMP280;52272;-29.642;-50.764;2022-11-11T17:50:11;100561.84;;;33.60
65600;BMP280;52272;-29.642;-50.764;2022-11-11T17:52:59;100566.81;;;33.61
65600;BMP280;52272;-29.642;-50.764;2022-11-11T17:55:49;100565.06;;;33.79
65600;BMP280;52272;-29.642;-50.764;2022-11-11T17:58:40;100568.13;;;33.26
65600;BMP280;52272;-29.642;-50.764;2022-11-11T18:01:33;100565.59;;;33.30
65600;BMP280;52272;-29.642;-50.764;2022-11-11T18:04:22;100564.63;;;33.03